Time;durP1;ratioP1;P1;durP2;ratioP2;P2;SDS_P1;SDS_P2;PMS_P1;PMS_P2;Temp;Humidity;BMP_temperature;BMP_pressure;BME280_temperature;BME280_humidity;BME280_pressure;Samples;Min_cycle;Max_cycle;Signal;HPM_P1;HPM_P2
2021/07/01 05:57:24;;;;;;;4.75;2.90;;;;;;;-146.52;100.00;63329.72;637488;27;20309;-81
2021/07/01 05:57:56;;;;;;;2.58;2.08;;;;;;;-146.52;100.00;63329.72;998670;29;20053;-80
2021/07/01 05:58:27;;;;;;;4.50;2.25;;;;;;;-146.52;100.00;63329.72;1005048;29;20547;-82
2021/07/01 05:58:59;;;;;;;5.45;2.00;;;;;;;-146.52;100.00;63329.72;1005395;29;20017;-81
2021/07/01 05:59:35;;;;;;;5.68;2.00;;;;;;;-146.52;100.00;63329.72;1012966;29;20021;-81
2021/07/01 06:00:07;;;;;;;5.10;2.60;;;;;;;-146.52;100.00;63329.72;1012685;29;20020;-79
2021/07/01 06:00:37;;;;;;;4.20;2.45;;;;;;;-146.52;100.00;63329.72;1001231;29;20029;-76
2021/07/01 06:01:08;;;;;;;3.03;2.08;;;;;;;-146.52;100.00;63329.72;997943;29;20033;-77
2021/07/01 06:01:39;;;;;;;5.18;2.58;;;;;;;-146.52;100.00;63329.72;1000955;29;20113;-78
2021/07/01 06:02:09;;;;;;;3.08;2.10;;;;;;;-146.52;100.00;63329.72;1000828;29;20017;-77
2021/07/01 06:02:40;;;;;;;4.50;1.90;;;;;;;-146.52;100.00;63329.72;1004700;29;20024;-76
2021/07/01 06:03:11;;;;;;;3.08;2.00;;;;;;;-146.52;100.00;63329.72;1000880;29;20186;-78
2021/07/01 06:03:41;;;;;;;2.58;1.83;;;;;;;-146.52;100.00;63329.72;997045;29;20057;-78
2021/07/01 06:04:12;;;;;;;8.80;3.65;;;;;;;-146.52;100.00;63329.72;996701;29;20520;-76
2021/07/01 06:04:43;;;;;;;4.75;2.70;;;;;;;-146.52;100.00;63329.72;993226;29;20060;-77
2021/07/01 06:05:13;;;;;;;2.95;2.17;;;;;;;-146.52;100.00;63329.72;997261;29;20052;-77
2021/07/01 06:05:46;;;;;;;4.43;2.30;;;;;;;-146.52;100.00;63329.72;997307;29;20105;-78
2021/07/01 06:06:17;;;;;;;2.90;1.80;;;;;;;-146.52;100.00;63329.72;1000845;29;20022;-78
2021/07/01 06:06:52;;;;;;;4.97;2.05;;;;;;;-146.52;100.00;63329.72;1008513;29;20434;-77
2021/07/01 06:07:26;;;;;;;5.00;2.70;;;;;;;-146.52;100.00;63329.72;1005280;29;20047;-78
2021/07/01 06:07:57;;;;;;;3.40;2.00;;;;;;;-146.52;100.00;63329.72;1004573;29;20025;-77
2021/07/01 06:08:30;;;;;;;3.38;2.38;;;;;;;-146.52;100.00;63329.72;1002615;29;20624;-78
2021/07/01 06:09:02;;;;;;;4.20;1.98;;;;;;;-146.52;100.00;63329.72;997342;29;20029;-79
2021/07/01 06:09:33;;;;;;;3.00;2.10;;;;;;;-146.52;100.00;63329.72;997411;29;20117;-79
2021/07/01 06:10:06;;;;;;;2.92;2.10;;;;;;;-146.52;100.00;63329.72;997121;29;20027;-80
2021/07/01 06:10:40;;;;;;;5.38;1.92;;;;;;;-146.52;100.00;63329.72;999628;29;20041;-79
2021/07/01 06:11:11;;;;;;;2.83;1.83;;;;;;;-146.52;100.00;63329.72;1000920;29;20132;-77
2021/07/01 06:11:42;;;;;;;2.13;1.70;;;;;;;-146.52;100.00;63329.72;1000656;29;20022;-76
2021/07/01 06:12:12;;;;;;;4.63;1.92;;;;;;;-146.52;100.00;63329.72;1004697;29;20426;-76
2021/07/01 06:12:43;;;;;;;3.72;1.90;;;;;;;-146.52;100.00;63329.72;1000871;29;20089;-76
2021/07/01 06:13:19;;;;;;;3.15;2.28;;;;;;;-146.52;100.00;63329.72;1004442;29;20025;-77
2021/07/01 06:13:49;;;;;;;3.10;1.92;;;;;;;-146.52;100.00;63329.72;1005103;29;20025;-79
2021/07/01 06:14:20;;;;;;;5.15;2.63;;;;;;;-146.52;100.00;63329.72;1005303;29;20568;-79
2021/07/01 06:14:56;;;;;;;4.65;2.35;;;;;;;-146.52;100.00;63329.72;1005002;29;20028;-79
2021/07/01 06:15:27;;;;;;;4.05;2.22;;;;;;;-146.52;100.00;63329.72;1001281;29;20094;-81
2021/07/01 06:15:58;;;;;;;3.50;2.05;;;;;;;-146.52;100.00;63329.72;1004932;29;20053;-79
2021/07/01 06:16:29;;;;;;;3.72;2.38;;;;;;;-146.52;100.00;63329.72;1013295;29;20476;-80
2021/07/01 06:17:00;;;;;;;3.40;2.22;;;;;;;-146.52;100.00;63329.72;1005032;29;20026;-79
2021/07/01 06:17:33;;;;;;;3.97;2.20;;;;;;;-146.52;100.00;63329.72;1010297;29;20017;-80
2021/07/01 06:18:03;;;;;;;3.55;2.03;;;;;;;-146.52;100.00;63329.72;1001544;29;20026;-79
2021/07/01 06:18:34;;;;;;;3.25;2.00;;;;;;;-146.52;100.00;63329.72;1001383;29;20030;-81
2021/07/01 06:19:05;;;;;;;3.53;2.35;;;;;;;-146.52;100.00;63329.72;1005128;29;20504;-80
2021/07/01 06:19:35;;;;;;;5.32;2.70;;;;;;;-146.52;100.00;63329.72;1009145;29;20108;-80
2021/07/01 06:20:07;;;;;;;3.92;2.55;;;;;;;-146.52;100.00;63329.72;1005646;29;20017;-81
2021/07/01 06:20:38;;;;;;;4.15;1.95;;;;;;;-146.52;100.00;63329.72;1006374;29;20021;-79
2021/07/01 06:21:09;;;;;;;5.63;2.25;;;;;;;-146.52;100.00;63329.72;1002474;29;20026;-80
2021/07/01 06:21:41;;;;;;;4.07;2.22;;;;;;;-146.52;100.00;63329.72;1002063;29;20102;-79
2021/07/01 06:22:12;;;;;;;4.35;2.45;;;;;;;-146.52;100.00;63329.72;1002375;29;20022;-80
2021/07/01 06:22:42;;;;;;;3.63;2.00;;;;;;;-146.52;100.00;63329.72;1008964;29;20017;-81
2021/07/01 06:23:14;;;;;;;3.50;2.25;;;;;;;-146.52;100.00;63329.72;1006529;29;20021;-81
2021/07/01 06:23:47;;;;;;;3.83;2.20;;;;;;;-146.52;100.00;63329.72;1002348;29;20533;-81
2021/07/01 06:24:18;;;;;;;3.13;2.10;;;;;;;-146.52;100.00;63329.72;1010058;29;20456;-81
2021/07/01 06:24:53;;;;;;;3.85;2.20;;;;;;;-146.52;100.00;63329.72;998955;29;20027;-81
2021/07/01 06:25:24;;;;;;;3.10;2.22;;;;;;;-146.52;100.00;63329.72;1002080;29;20022;-80
2021/07/01 06:25:56;;;;;;;4.97;2.40;;;;;;;-146.52;100.00;63329.72;1005390;29;20029;-79
2021/07/01 06:26:28;;;;;;;2.85;2.15;;;;;;;-146.52;100.00;63329.72;1009388;29;20072;-80
2021/07/01 06:27:01;;;;;;;6.53;2.90;;;;;;;-146.52;100.00;63329.72;1002085;29;20030;-81
2021/07/01 06:27:35;;;;;;;3.22;2.08;;;;;;;-146.52;100.00;63329.72;998572;29;20026;-80
2021/07/01 06:28:05;;;;;;;3.72;2.33;;;;;;;-146.52;100.00;63329.72;1005711;29;20025;-80
2021/07/01 06:28:57;;;;;;;3.88;2.60;;;;;;;-146.52;100.00;63329.72;1009059;29;20115;-81
2021/07/01 06:29:28;;;;;;;3.25;2.20;;;;;;;-146.52;100.00;63329.72;995037;29;20103;-82
2021/07/01 06:30:07;;;;;;;4.50;2.55;;;;;;;-146.52;100.00;63329.72;999169;29;20022;-81
2021/07/01 06:30:48;;;;;;;4.75;2.58;;;;;;;-146.52;100.00;63329.72;1006725;29;20030;-82
2021/07/01 06:31:25;;;;;;;4.55;2.33;;;;;;;-146.52;100.00;63329.72;1001946;29;20441;-81
2021/07/01 06:32:01;;;;;;;5.57;2.03;;;;;;;-146.52;100.00;63329.72;1005422;29;20369;-83
2021/07/01 06:32:45;;;;;;;4.53;2.75;;;;;;;-146.52;100.00;63329.72;1001649;29;20420;-84
2021/07/01 06:33:20;;;;;;;4.05;2.20;;;;;;;-146.52;100.00;63329.72;997385;29;20038;-80
2021/07/01 06:34:00;;;;;;;3.67;2.20;;;;;;;-146.52;100.00;63329.72;997365;29;20091;-82
2021/07/01 06:34:40;;;;;;;4.35;2.58;;;;;;;-146.52;100.00;63329.72;997899;29;20063;-81
2021/07/01 06:35:21;;;;;;;3.63;2.20;;;;;;;-146.52;100.00;63329.72;1000981;29;20074;-81
2021/07/01 06:35:56;;;;;;;5.97;2.28;;;;;;;-146.52;100.00;63329.72;1001005;29;20034;-79
2021/07/01 06:36:34;;;;;;;3.58;2.58;;;;;;;-146.52;100.00;63329.72;1000708;29;20026;-80
2021/07/01 06:37:09;;;;;;;4.32;2.72;;;;;;;-146.52;100.00;63329.72;1004741;29;20033;-81
2021/07/01 06:37:51;;;;;;;4.68;2.60;;;;;;;-146.52;100.00;63329.72;1000910;29;20042;-80
2021/07/01 06:38:27;;;;;;;3.40;2.08;;;;;;;-146.52;100.00;63329.72;1000500;29;20048;-81
2021/07/01 06:39:10;;;;;;;3.47;2.30;;;;;;;-146.52;100.00;63329.72;997115;29;20034;-82
2021/07/01 06:39:51;;;;;;;5.50;2.35;;;;;;;-146.52;100.00;63329.72;997585;29;20450;-80
2021/07/01 06:40:34;;;;;;;2.78;1.85;;;;;;;-146.52;100.00;63329.72;1001037;29;20480;-80
2021/07/01 06:41:19;;;;;;;5.20;2.35;;;;;;;-146.52;100.00;63329.72;1000749;29;20465;-80
2021/07/01 06:42:00;;;;;;;5.38;2.33;;;;;;;-146.52;100.00;63329.72;1000768;29;20465;-79
2021/07/01 06:42:38;;;;;;;4.75;3.00;;;;;;;-146.52;100.00;63329.72;1000837;29;20497;-79
2021/07/01 06:43:10;;;;;;;4.00;2.40;;;;;;;-146.52;100.00;63329.72;1000975;29;20062;-80
2021/07/01 06:43:48;;;;;;;3.42;2.33;;;;;;;-146.52;100.00;63329.72;997710;29;20033;-80
2021/07/01 06:44:21;;;;;;;3.70;2.70;;;;;;;-146.52;100.00;63329.72;997660;29;20060;-81
2021/07/01 06:44:53;;;;;;;4.45;2.58;;;;;;;-146.52;100.00;63329.72;1005025;29;20064;-81
2021/07/01 06:45:24;;;;;;;3.53;2.30;;;;;;;-146.52;100.00;63329.72;997810;29;20435;-79
2021/07/01 06:45:56;;;;;;;3.28;2.40;;;;;;;-146.52;100.00;63329.72;1001045;29;20025;-80
2021/07/01 06:46:30;;;;;;;3.60;2.53;;;;;;;-146.52;100.00;63329.72;1005332;29;20033;-79
2021/07/01 06:47:01;;;;;;;2.97;1.95;;;;;;;-146.52;100.00;63329.72;1009342;29;20021;-79
2021/07/01 06:47:32;;;;;;;3.30;2.28;;;;;;;-146.52;100.00;63329.72;1001022;29;20038;-80
2021/07/01 06:48:03;;;;;;;4.03;2.25;;;;;;;-146.52;100.00;63329.72;1005111;29;20469;-81
2021/07/01 06:48:33;;;;;;;5.28;2.63;;;;;;;-146.52;100.00;63329.72;1004959;29;20030;-78
2021/07/01 06:49:04;;;;;;;3.42;2.25;;;;;;;-146.52;100.00;63329.72;1004787;29;20483;-81
2021/07/01 06:49:35;;;;;;;3.55;2.58;;;;;;;-146.52;100.00;63329.72;1004683;29;20037;-79
2021/07/01 06:50:06;;;;;;;4.10;2.70;;;;;;;-146.52;100.00;63329.72;1004697;29;20029;-79
2021/07/01 06:50:36;;;;;;;3.35;2.25;;;;;;;-146.52;100.00;63329.72;1004886;29;20029;-81
2021/07/01 06:51:07;;;;;;;4.18;2.30;;;;;;;-146.52;100.00;63329.72;1004648;29;20032;-80
2021/07/01 06:51:39;;;;;;;3.95;2.10;;;;;;;-146.52;100.00;63329.72;1008932;29;20031;-81
2021/07/01 06:52:13;;;;;;;3.50;2.30;;;;;;;-146.52;100.00;63329.72;1005595;29;20030;-80
2021/07/01 06:52:44;;;;;;;3.95;2.65;;;;;;;-146.52;100.00;63329.72;1001861;29;20037;-82
2021/07/01 06:53:15;;;;;;;4.43;2.42;;;;;;;-146.52;100.00;63329.72;1004947;29;20392;-80
2021/07/01 06:53:46;;;;;;;4.28;2.28;;;;;;;-146.52;100.00;63329.72;1009282;29;20139;-79
2021/07/01 06:54:17;;;;;;;3.47;2.42;;;;;;;-146.52;100.00;63329.72;997341;29;20027;-78
2021/07/01 06:54:48;;;;;;;4.75;2.35;;;;;;;-146.52;100.00;63329.72;1000870;29;20493;-79
2021/07/01 06:55:19;;;;;;;5.38;2.50;;;;;;;-146.52;100.00;63329.72;1001175;29;20027;-79
2021/07/01 06:55:51;;;;;;;5.40;2.40;;;;;;;-146.52;100.00;63329.72;1005960;29;20068;-81
2021/07/01 06:56:21;;;;;;;5.70;2.85;;;;;;;-146.52;100.00;63329.72;1002283;29;20040;-78
2021/07/01 06:56:53;;;;;;;5.45;3.00;;;;;;;-146.52;100.00;63329.72;998706;29;20031;-78
2021/07/01 06:57:24;;;;;;;6.00;2.80;;;;;;;-146.52;100.00;63329.72;1000801;29;20041;-78
2021/07/01 06:57:55;;;;;;;3.35;2.45;;;;;;;-146.52;100.00;63329.72;1000841;29;20022;-78
2021/07/01 06:58:25;;;;;;;5.88;3.13;;;;;;;-146.52;100.00;63329.72;1000818;29;20120;-80
2021/07/01 06:58:56;;;;;;;3.70;2.78;;;;;;;-146.52;100.00;63329.72;1000983;29;20120;-80
2021/07/01 06:59:26;;;;;;;4.55;2.80;;;;;;;-146.52;100.00;63329.72;1004722;29;20029;-79
2021/07/01 06:59:57;;;;;;;5.10;2.75;;;;;;;-146.52;100.00;63329.72;1004712;29;20025;-80
2021/07/01 07:00:28;;;;;;;4.18;2.60;;;;;;;-146.52;100.00;63329.72;1004575;29;20029;-80
2021/07/01 07:00:58;;;;;;;6.88;2.42;;;;;;;-146.52;100.00;63329.72;1004939;29;20579;-80
2021/07/01 07:01:29;;;;;;;4.93;2.17;;;;;;;-146.52;100.00;63329.72;1001647;29;20117;-81
2021/07/01 07:02:00;;;;;;;4.75;2.35;;;;;;;-146.52;100.00;63329.72;1008402;29;20029;-80
2021/07/01 07:02:32;;;;;;;3.17;2.08;;;;;;;-146.52;100.00;63329.72;1004681;29;20104;-80
2021/07/01 07:03:04;;;;;;;4.15;2.33;;;;;;;-146.52;100.00;63329.72;1004928;29;20116;-79
2021/07/01 07:03:34;;;;;;;3.50;2.13;;;;;;;-146.52;100.00;63329.72;1001110;29;20528;-79
2021/07/01 07:04:05;;;;;;;3.85;2.70;;;;;;;-146.52;100.00;63329.72;997535;29;20111;-79
2021/07/01 07:04:36;;;;;;;4.57;2.58;;;;;;;-146.52;100.00;63329.72;1008757;29;20041;-79
2021/07/01 07:05:08;;;;;;;3.38;2.13;;;;;;;-146.52;100.00;63329.72;1008511;29;20116;-79
2021/07/01 07:05:39;;;;;;;3.60;2.17;;;;;;;-146.52;100.00;63329.72;1005193;29;20098;-80
2021/07/01 07:06:09;;;;;;;5.60;2.30;;;;;;;-146.52;100.00;63329.72;998183;29;20575;-78
2021/07/01 07:06:40;;;;;;;4.45;2.25;;;;;;;-146.52;100.00;63329.72;1009862;29;20467;-79
2021/07/01 07:07:11;;;;;;;4.35;2.33;;;;;;;-146.52;100.00;63329.72;1009809;29;20035;-78
2021/07/01 07:07:43;;;;;;;5.07;2.53;;;;;;;-146.52;100.00;63329.72;1001130;29;20075;-81
2021/07/01 07:08:14;;;;;;;3.65;2.28;;;;;;;-146.52;100.00;63329.72;1004991;29;20076;-79
2021/07/01 07:08:44;;;;;;;2.83;2.03;;;;;;;-146.52;100.00;63329.72;1004791;29;20041;-79
2021/07/01 07:09:15;;;;;;;4.40;2.50;;;;;;;-146.52;100.00;63329.72;1008821;29;20115;-79
2021/07/01 07:09:46;;;;;;;2.60;1.75;;;;;;;-146.52;100.00;63329.72;1002210;29;20037;-81
2021/07/01 07:10:18;;;;;;;3.35;2.08;;;;;;;-146.52;100.00;63329.72;1003841;29;20078;-79
2021/07/01 07:10:49;;;;;;;3.60;2.00;;;;;;;-146.52;100.00;63329.72;1008235;29;20030;-79
2021/07/01 07:11:20;;;;;;;4.10;1.73;;;;;;;-146.52;100.00;63329.72;1003778;29;20071;-80
2021/07/01 07:11:50;;;;;;;3.65;1.80;;;;;;;-146.52;100.00;63329.72;1003585;29;20063;-79
2021/07/01 07:12:21;;;;;;;3.95;2.05;;;;;;;-146.52;100.00;63329.72;999445;29;20094;-80
2021/07/01 07:12:54;;;;;;;3.85;1.92;;;;;;;-146.52;100.00;63329.72;1003649;29;20496;-79
2021/07/01 07:13:25;;;;;;;2.70;1.90;;;;;;;-146.52;100.00;63329.72;1008487;29;20077;-80
2021/07/01 07:13:56;;;;;;;4.03;2.53;;;;;;;-146.52;100.00;63329.72;1008803;29;20037;-79
2021/07/01 07:14:27;;;;;;;4.38;2.22;;;;;;;-146.52;100.00;63329.72;1013073;29;20009;-80
2021/07/01 07:14:58;;;;;;;3.20;1.75;;;;;;;-146.52;100.00;63329.72;1009302;29;20104;-79
2021/07/01 07:15:29;;;;;;;2.22;1.75;;;;;;;-146.52;100.00;63329.72;1005586;29;20018;-80
2021/07/01 07:16:00;;;;;;;4.57;2.30;;;;;;;-146.52;100.00;63329.72;1005136;29;20029;-79
2021/07/01 07:16:31;;;;;;;5.55;1.88;;;;;;;-146.52;100.00;63329.72;1012912;29;20025;-80
2021/07/01 07:17:01;;;;;;;3.05;2.10;;;;;;;-146.52;100.00;63329.72;1007695;29;20021;-79
2021/07/01 07:17:32;;;;;;;3.05;1.90;;;;;;;-146.52;100.00;63329.72;1005233;29;20029;-78
2021/07/01 07:18:09;;;;;;;2.75;1.80;;;;;;;-146.52;100.00;63329.72;1000960;29;20021;-79
2021/07/01 07:18:40;;;;;;;2.47;1.70;;;;;;;-146.52;100.00;63329.72;1008693;29;20029;-79
2021/07/01 07:19:11;;;;;;;4.32;2.00;;;;;;;-146.52;100.00;63329.72;1004817;29;20116;-81
2021/07/01 07:19:42;;;;;;;4.82;1.98;;;;;;;-146.52;100.00;63329.72;1005040;29;20568;-79
2021/07/01 07:20:13;;;;;;;2.55;1.77;;;;;;;-146.52;100.00;63329.72;997491;29;20033;-80
2021/07/01 07:20:44;;;;;;;5.88;2.20;;;;;;;-146.52;100.00;63329.72;1004671;29;20030;-79
2021/07/01 07:21:17;;;;;;;2.88;1.77;;;;;;;-146.52;100.00;63329.72;1004672;29;20029;-79
2021/07/01 07:21:50;;;;;;;3.17;1.83;;;;;;;-146.52;100.00;63329.72;1004635;29;20021;-81
2021/07/01 07:22:20;;;;;;;3.83;2.15;;;;;;;-146.52;100.00;63329.72;997157;29;20026;-80
2021/07/01 07:22:51;;;;;;;3.13;1.77;;;;;;;-146.52;100.00;63329.72;1001076;29;20476;-80
2021/07/01 07:23:32;;;;;;;3.00;1.90;;;;;;;-146.52;100.00;63329.72;1004835;29;20061;-80
2021/07/01 07:24:03;;;;;;;3.80;2.08;;;;;;;-146.52;100.00;63329.72;1004999;29;20488;-80
2021/07/01 07:24:34;;;;;;;3.60;1.75;;;;;;;-146.52;100.00;63329.72;1000959;29;20018;-80
2021/07/01 07:25:06;;;;;;;3.60;2.20;;;;;;;-146.52;100.00;63329.72;1004781;29;20438;-80
2021/07/01 07:25:40;;;;;;;2.65;1.80;;;;;;;-146.52;100.00;63329.72;997359;29;20075;-80
2021/07/01 07:26:14;;;;;;;4.80;1.80;;;;;;;-146.52;100.00;63329.72;1000781;29;20109;-79
2021/07/01 07:26:53;;;;;;;3.05;1.70;;;;;;;-146.52;100.00;63329.72;1004752;29;20033;-80
2021/07/01 07:27:26;;;;;;;4.05;2.00;;;;;;;-146.52;100.00;63329.72;997514;29;20083;-82
2021/07/01 07:28:06;;;;;;;2.88;1.30;;;;;;;-146.52;100.00;63329.72;1005047;29;20120;-81
2021/07/01 07:28:37;;;;;;;3.53;1.52;;;;;;;-146.52;100.00;63329.72;1004958;29;20495;-80
2021/07/01 07:29:08;;;;;;;4.20;1.70;;;;;;;-146.52;100.00;63329.72;1005013;29;20500;-81
2021/07/01 07:29:41;;;;;;;3.35;1.77;;;;;;;-146.52;100.00;63329.72;1005241;29;20022;-80
2021/07/01 07:30:12;;;;;;;3.70;1.70;;;;;;;-146.52;100.00;63329.72;1005085;29;20049;-81
2021/07/01 07:30:42;;;;;;;4.45;1.83;;;;;;;-146.52;100.00;63329.72;1009638;29;20025;-81
2021/07/01 07:31:17;;;;;;;2.38;1.50;;;;;;;-146.52;100.00;63329.72;1005173;29;20093;-81
2021/07/01 07:31:48;;;;;;;3.30;1.70;;;;;;;-146.52;100.00;63329.72;1001964;29;20093;-81
2021/07/01 07:32:18;;;;;;;2.13;1.50;;;;;;;-146.52;100.00;63329.72;1005574;29;20029;-82
2021/07/01 07:32:49;;;;;;;4.50;1.73;;;;;;;-146.52;100.00;63329.72;1001176;29;20112;-82
2021/07/01 07:33:23;;;;;;;2.70;1.67;;;;;;;-146.52;100.00;63329.72;1002238;29;20112;-80
2021/07/01 07:33:57;;;;;;;2.13;1.55;;;;;;;-146.52;100.00;63329.72;1003067;29;20033;-80
2021/07/01 07:34:28;;;;;;;3.45;1.63;;;;;;;-146.52;100.00;63329.72;1006207;29;20137;-80
2021/07/01 07:34:59;;;;;;;3.63;1.60;;;;;;;-146.52;100.00;63329.72;1001770;29;20138;-80
2021/07/01 07:35:29;;;;;;;3.80;1.95;;;;;;;-146.52;100.00;63329.72;1009523;29;20131;-81
2021/07/01 07:36:00;;;;;;;3.78;1.55;;;;;;;-146.52;100.00;63329.72;998198;29;20030;-81
2021/07/01 07:36:33;;;;;;;2.58;1.52;;;;;;;-146.52;100.00;63329.72;1002078;29;20014;-82
2021/07/01 07:37:04;;;;;;;2.00;1.35;;;;;;;-146.52;100.00;63329.72;1007465;29;20021;-80
2021/07/01 07:37:34;;;;;;;2.65;1.33;;;;;;;-146.52;100.00;63329.72;997787;29;20113;-80
2021/07/01 07:38:06;;;;;;;2.85;1.42;;;;;;;-146.52;100.00;63329.72;996256;29;20075;-81
2021/07/01 07:38:37;;;;;;;4.78;2.53;;;;;;;-146.52;100.00;63329.72;994156;29;20023;-80
2021/07/01 07:39:08;;;;;;;2.80;1.75;;;;;;;-146.52;100.00;63329.72;1007340;29;20142;-81
2021/07/01 07:39:39;;;;;;;4.45;1.60;;;;;;;-146.52;100.00;63329.72;1000457;29;20033;-81
2021/07/01 07:40:10;;;;;;;3.08;1.77;;;;;;;-146.52;100.00;63329.72;1008102;29;20111;-81
2021/07/01 07:40:41;;;;;;;1.77;1.25;;;;;;;-146.52;100.00;63329.72;1002142;29;20022;-81
2021/07/01 07:41:14;;;;;;;2.60;1.50;;;;;;;-146.52;100.00;63329.72;1001613;29;20104;-81
2021/07/01 07:41:47;;;;;;;2.63;1.45;;;;;;;-146.52;100.00;63329.72;993914;29;20019;-81
2021/07/01 07:42:20;;;;;;;1.55;1.15;;;;;;;-146.52;100.00;63329.72;997681;29;20051;-81
2021/07/01 07:43:03;;;;;;;2.72;1.50;;;;;;;-146.52;100.00;63329.72;997577;29;20032;-81
2021/07/01 07:43:37;;;;;;;3.53;1.80;;;;;;;-146.52;100.00;63329.72;997912;29;20023;-81
2021/07/01 07:44:12;;;;;;;2.60;1.35;;;;;;;-146.52;100.00;63329.72;997667;29;20147;-81
2021/07/01 07:44:46;;;;;;;3.05;1.30;;;;;;;-146.52;100.00;63329.72;1001289;29;20049;-82
2021/07/01 07:45:35;;;;;;;2.55;1.48;;;;;;;-146.52;100.00;63329.72;1005638;29;20022;-82
2021/07/01 07:46:41;;;;;;;3.30;1.40;;;;;;;-146.52;100.00;63329.72;1005853;29;20062;-82
2021/07/01 07:47:35;;;;;;;2.90;1.60;;;;;;;-146.52;100.00;63329.72;1009986;29;20037;-82
2021/07/01 07:48:34;;;;;;;2.25;1.33;;;;;;;-146.52;100.00;63329.72;1006879;29;20045;-82
2021/07/01 07:49:27;;;;;;;2.90;1.67;;;;;;;-146.52;100.00;63329.72;1006762;29;20030;-81
2021/07/01 07:50:07;;;;;;;2.25;1.33;;;;;;;-146.52;100.00;63329.72;1001346;29;20026;-81
2021/07/01 07:50:57;;;;;;;2.25;1.27;;;;;;;-146.52;100.00;63329.72;1001360;29;20030;-80
2021/07/01 07:52:18;;;;;;;3.33;1.48;;;;;;;-146.52;100.00;63329.72;1006772;29;20483;-80
2021/07/01 07:52:55;;;;;;;2.17;1.30;;;;;;;-146.52;100.00;63329.72;1003092;29;20098;-80
2021/07/01 07:53:52;;;;;;;3.00;1.50;;;;;;;-146.52;100.00;63329.72;1009219;29;20033;-81
2021/07/01 07:54:52;;;;;;;3.00;1.70;;;;;;;-146.52;100.00;63329.72;1001665;29;20037;-79
2021/07/01 07:55:40;;;;;;;4.22;1.67;;;;;;;-146.52;100.00;63329.72;997251;29;20163;-80
2021/07/01 07:56:23;;;;;;;3.72;1.73;;;;;;;-146.52;100.00;63329.72;999677;29;20027;-80
2021/07/01 07:57:33;;;;;;;2.53;1.17;;;;;;;-146.52;100.00;63329.72;1004973;29;20037;-80
2021/07/01 07:58:27;;;;;;;2.03;1.40;;;;;;;-146.52;100.00;63329.72;1003670;29;20146;-81
2021/07/01 07:59:04;;;;;;;1.88;1.20;;;;;;;-146.52;100.00;63329.72;1001405;29;20034;-81
2021/07/01 07:59:48;;;;;;;2.53;1.10;;;;;;;-146.52;100.00;63329.72;994208;29;20033;-81
2021/07/01 08:00:47;;;;;;;3.33;1.40;;;;;;;-146.52;100.00;63329.72;1005119;29;20112;-81
2021/07/01 08:02:29;;;;;;;2.65;1.58;;;;;;;-146.52;100.00;63329.72;997571;29;20041;-80
2021/07/01 08:03:16;;;;;;;2.40;1.10;;;;;;;-146.52;100.00;63329.72;1002780;29;20473;-79
2021/07/01 08:04:15;;;;;;;2.38;1.15;;;;;;;-146.52;100.00;63329.72;1005212;29;20033;-80
2021/07/01 08:05:18;;;;;;;2.25;1.20;;;;;;;-146.52;100.00;63329.72;1001732;29;20102;-81
2021/07/01 08:06:22;;;;;;;2.65;1.40;;;;;;;-146.52;100.00;63329.72;1012411;29;20185;-80
2021/07/01 08:07:36;;;;;;;2.60;1.42;;;;;;;-146.52;100.00;63329.72;1007471;29;20120;-79
2021/07/01 08:08:29;;;;;;;2.17;1.17;;;;;;;-146.52;100.00;63329.72;1010825;29;20033;-80
2021/07/01 08:09:35;;;;;;;3.25;1.02;;;;;;;-146.52;100.00;63329.72;1005048;29;20030;-79
2021/07/01 08:10:32;;;;;;;2.70;1.52;;;;;;;-146.52;100.00;63329.72;997524;29;20039;-82
2021/07/01 08:11:11;;;;;;;2.15;1.30;;;;;;;-146.52;100.00;63329.72;1000665;29;20097;-81
2021/07/01 08:11:53;;;;;;;2.95;1.50;;;;;;;-146.52;100.00;63329.72;999363;29;20121;-80
2021/07/01 08:12:33;;;;;;;3.53;1.33;;;;;;;-146.52;100.00;63329.72;1005188;29;20034;-80
2021/07/01 08:13:25;;;;;;;5.88;1.58;;;;;;;-146.52;100.00;63329.72;997642;29;20019;-80
2021/07/01 08:15:18;;;;;;;3.08;1.20;;;;;;;-146.52;100.00;63329.72;1000741;29;20437;-80
2021/07/01 08:16:29;;;;;;;3.95;1.20;;;;;;;-146.52;100.00;63329.72;1009290;29;20064;-81
2021/07/01 08:17:19;;;;;;;2.13;1.20;;;;;;;-146.52;100.00;63329.72;1012733;29;20028;-81
2021/07/01 08:18:02;;;;;;;2.10;1.25;;;;;;;-146.52;100.00;63329.72;1012701;29;20024;-79
2021/07/01 08:19:13;;;;;;;2.63;1.70;;;;;;;-146.52;100.00;63329.72;1008974;29;20036;-81
2021/07/01 08:20:27;;;;;;;1.77;1.27;;;;;;;-146.52;100.00;63329.72;1008781;29;20037;-79
2021/07/01 08:21:15;;;;;;;3.42;1.42;;;;;;;-146.52;100.00;63329.72;1004684;29;20084;-81
2021/07/01 08:22:11;;;;;;;3.47;1.58;;;;;;;-146.52;100.00;63329.72;1001015;29;20072;-80
2021/07/01 08:22:58;;;;;;;2.25;1.42;;;;;;;-146.52;100.00;63329.72;1005020;29;20033;-81
2021/07/01 08:23:34;;;;;;;2.17;1.40;;;;;;;-146.52;100.00;63329.72;998254;29;20038;-80
2021/07/01 08:24:06;;;;;;;1.83;1.30;;;;;;;-146.52;100.00;63329.72;1001363;29;20105;-80
2021/07/01 08:24:37;;;;;;;2.00;1.30;;;;;;;-146.52;100.00;63329.72;996059;29;20026;-80
2021/07/01 08:25:08;;;;;;;2.65;1.35;;;;;;;-146.52;100.00;63329.72;998569;29;20113;-80
2021/07/01 08:25:38;;;;;;;2.25;1.20;;;;;;;-146.52;100.00;63329.72;993529;29;20113;-81
2021/07/01 08:26:10;;;;;;;2.22;1.30;;;;;;;-146.52;100.00;63329.72;1001101;29;20032;-81
2021/07/01 08:26:40;;;;;;;2.80;1.67;;;;;;;-146.52;100.00;63329.72;1012555;29;20032;-79
2021/07/01 08:27:11;;;;;;;2.03;1.20;;;;;;;-146.52;100.00;63329.72;1001481;29;20093;-79
2021/07/01 08:27:42;;;;;;;1.95;1.25;;;;;;;-146.52;100.00;63329.72;1005632;29;20054;-79
2021/07/01 08:28:15;;;;;;;2.03;1.40;;;;;;;-146.52;100.00;63329.72;1004850;29;20036;-81
2021/07/01 08:28:48;;;;;;;1.92;1.23;;;;;;;-146.52;100.00;63329.72;997617;29;20444;-81
2021/07/01 08:29:19;;;;;;;1.98;1.30;;;;;;;-146.52;100.00;63329.72;1004344;29;20036;-80
2021/07/01 08:29:50;;;;;;;1.67;1.35;;;;;;;-146.52;100.00;63329.72;1009036;29;20116;-79
2021/07/01 08:30:22;;;;;;;2.78;1.27;;;;;;;-146.52;100.00;63329.72;1009587;29;20119;-80
2021/07/01 08:30:54;;;;;;;4.30;1.30;;;;;;;-146.52;100.00;63329.72;1001618;29;20037;-79
2021/07/01 08:31:24;;;;;;;4.13;1.45;;;;;;;-146.52;100.00;63329.72;1001720;29;20087;-80
2021/07/01 08:31:57;;;;;;;1.90;1.20;;;;;;;-146.52;100.00;63329.72;1001601;29;20078;-80
2021/07/01 08:32:28;;;;;;;4.05;1.48;;;;;;;-146.52;100.00;63329.72;1013111;29;20025;-81
2021/07/01 08:32:58;;;;;;;4.05;1.40;;;;;;;-146.52;100.00;63329.72;1001309;29;20026;-82
2021/07/01 08:33:32;;;;;;;2.50;1.30;;;;;;;-146.52;100.00;63329.72;1002184;29;20029;-80
2021/07/01 08:34:04;;;;;;;4.05;1.40;;;;;;;-146.52;100.00;63329.72;1009593;29;20038;-80
2021/07/01 08:34:36;;;;;;;2.22;1.35;;;;;;;-146.52;100.00;63329.72;1001347;29;20576;-80
2021/07/01 08:35:13;;;;;;;3.22;1.55;;;;;;;-146.52;100.00;63329.72;1001284;29;20041;-80
2021/07/01 08:35:43;;;;;;;3.95;1.48;;;;;;;-146.52;100.00;63329.72;1005149;29;20033;-81
2021/07/01 08:36:15;;;;;;;2.20;1.40;;;;;;;-146.52;100.00;63329.72;997360;29;20450;-80
2021/07/01 08:36:46;;;;;;;1.98;1.42;;;;;;;-146.52;100.00;63329.72;1001384;29;20290;-79
2021/07/01 08:37:16;;;;;;;2.22;1.67;;;;;;;-146.52;100.00;63329.72;997316;29;20041;-82
2021/07/01 08:37:49;;;;;;;3.15;1.85;;;;;;;-146.52;100.00;63329.72;1001330;29;20497;-81
2021/07/01 08:38:20;;;;;;;3.70;1.55;;;;;;;-146.52;100.00;63329.72;997393;29;20110;-80
2021/07/01 08:38:52;;;;;;;3.22;1.58;;;;;;;-146.52;100.00;63329.72;1001391;29;20018;-81
2021/07/01 08:39:23;;;;;;;2.47;1.42;;;;;;;-146.52;100.00;63329.72;1001286;29;20025;-81
2021/07/01 08:39:54;;;;;;;2.38;1.50;;;;;;;-146.52;100.00;63329.72;997565;29;20557;-81
2021/07/01 08:40:31;;;;;;;2.88;1.60;;;;;;;-146.52;100.00;63329.72;1005065;29;20028;-80
2021/07/01 08:41:11;;;;;;;2.40;1.30;;;;;;;-146.52;100.00;63329.72;997517;29;20032;-81
2021/07/01 08:41:43;;;;;;;2.42;1.77;;;;;;;-146.52;100.00;63329.72;1005027;29;20026;-79
2021/07/01 08:42:14;;;;;;;4.15;1.90;;;;;;;-146.52;100.00;63329.72;1005042;29;20480;-80